createdAt,value
2017-11-08T00:00:33.042Z,975.90
2017-11-08T00:01:36.517Z,975.86
2017-11-08T00:02:33.894Z,975.87
2017-11-08T00:03:34.133Z,975.98
2017-11-08T00:04:32.527Z,975.95
2017-11-08T00:05:32.425Z,975.95
2017-11-08T00:06:32.330Z,975.90
2017-11-08T00:07:32.861Z,975.92
2017-11-08T00:08:35.154Z,975.95
2017-11-08T00:09:32.265Z,975.90
2017-11-08T00:10:33.886Z,975.90
2017-11-08T00:11:32.526Z,975.94
2017-11-08T00:12:32.825Z,975.96
2017-11-08T00:13:34.735Z,976.01
2017-11-08T00:14:31.661Z,975.96
2017-11-08T00:15:35.255Z,976.00
2017-11-08T00:16:31.734Z,975.96
2017-11-08T00:17:35.165Z,975.89
2017-11-08T00:18:35.365Z,975.91
2017-11-08T00:19:31.286Z,975.88
2017-11-08T00:20:31.168Z,975.90
2017-11-08T00:21:31.144Z,975.84
2017-11-08T00:22:31.121Z,975.88
2017-11-08T00:23:31.065Z,975.84
2017-11-08T00:24:31.063Z,975.78
2017-11-08T00:25:30.779Z,975.77
2017-11-08T00:26:30.786Z,975.81
2017-11-08T00:27:30.601Z,975.81
2017-11-08T00:28:30.683Z,975.82
2017-11-08T00:29:30.440Z,975.86
2017-11-08T00:30:30.497Z,975.82
2017-11-08T00:31:33.709Z,975.83
2017-11-08T00:32:30.293Z,975.83
2017-11-08T00:33:30.125Z,975.85
2017-11-08T00:34:30.114Z,975.86
2017-11-08T00:35:29.950Z,975.88
2017-11-08T00:36:29.865Z,975.88
2017-11-08T00:37:29.812Z,975.93
2017-11-08T00:38:29.859Z,975.93
2017-11-08T00:39:32.162Z,975.92
2017-11-08T00:40:29.649Z,975.93
2017-11-08T00:41:29.491Z,975.94
2017-11-08T00:42:29.385Z,975.95
2017-11-08T00:43:29.935Z,975.94
2017-11-08T00:44:29.292Z,975.98
2017-11-08T00:45:29.230Z,975.95
2017-11-08T00:46:29.605Z,975.89
2017-11-08T00:47:29.029Z,975.86
2017-11-08T00:48:30.714Z,975.85
2017-11-08T00:49:28.850Z,975.85
2017-11-08T00:50:28.765Z,975.84
2017-11-08T00:51:28.699Z,975.86
2017-11-08T00:52:28.966Z,975.85
2017-11-08T00:53:28.496Z,975.82
2017-11-08T00:54:28.682Z,975.84
2017-11-08T00:55:28.337Z,975.84
2017-11-08T00:56:28.746Z,975.85
2017-11-08T00:57:31.157Z,975.88
2017-11-08T00:58:28.077Z,975.87
2017-11-08T00:59:28.043Z,975.86
2017-11-08T01:00:29.637Z,975.86
2017-11-08T01:01:27.965Z,975.88
2017-11-08T01:02:28.398Z,975.89
2017-11-08T01:03:27.669Z,975.90
2017-11-08T01:04:27.591Z,975.92
2017-11-08T01:05:27.507Z,975.92
2017-11-08T01:06:27.427Z,975.91
2017-11-08T01:07:27.342Z,975.93
2017-11-08T01:08:27.262Z,975.93
2017-11-08T01:09:27.190Z,975.92
2017-11-08T01:10:27.101Z,975.91
2017-11-08T01:11:27.018Z,975.88
2017-11-08T01:12:26.937Z,975.86
2017-11-08T01:13:26.856Z,975.88
2017-11-08T01:14:29.640Z,975.88
2017-11-08T01:15:28.630Z,975.89
2017-11-08T01:16:28.121Z,975.85
2017-11-08T01:17:26.532Z,975.84
2017-11-08T01:18:26.450Z,975.81
2017-11-08T01:19:26.368Z,975.83
2017-11-08T01:20:28.121Z,975.77
2017-11-08T01:21:26.205Z,975.79
2017-11-08T01:22:26.123Z,975.77
2017-11-08T01:23:26.792Z,975.81
2017-11-08T01:24:25.959Z,975.80
2017-11-08T01:25:25.881Z,975.79
2017-11-08T01:26:25.797Z,975.81
2017-11-08T01:27:25.717Z,975.82
2017-11-08T01:28:25.633Z,975.84
2017-11-08T01:29:26.090Z,975.85
2017-11-08T01:30:25.477Z,975.82
2017-11-08T01:31:25.389Z,975.86
2017-11-08T01:32:25.313Z,975.85
2017-11-08T01:33:25.226Z,975.85
2017-11-08T01:34:25.148Z,975.86
2017-11-08T01:35:25.063Z,975.86
2017-11-08T01:36:24.982Z,975.85
2017-11-08T01:37:24.903Z,975.83
2017-11-08T01:38:24.827Z,975.85
2017-11-08T01:39:24.738Z,975.86
2017-11-08T01:40:24.657Z,975.88
2017-11-08T01:41:24.578Z,975.90
2017-11-08T01:42:24.495Z,975.89
2017-11-08T01:43:24.412Z,975.92
2017-11-08T01:44:24.332Z,975.93
2017-11-08T01:45:24.271Z,975.94
2017-11-08T01:46:24.170Z,975.91
2017-11-08T01:47:24.089Z,975.88
2017-11-08T01:48:24.007Z,975.89
2017-11-08T01:49:23.928Z,975.89
2017-11-08T01:50:23.843Z,975.86
2017-11-08T01:51:23.764Z,975.88
2017-11-08T01:52:23.682Z,975.81
2017-11-08T01:53:23.600Z,975.78
2017-11-08T01:54:23.520Z,975.75
2017-11-08T01:55:23.441Z,975.74
2017-11-08T01:56:23.359Z,975.74
2017-11-08T01:57:23.287Z,975.76
2017-11-08T01:58:23.209Z,975.75
2017-11-08T01:59:23.113Z,975.78
2017-11-08T02:00:23.032Z,975.77
2017-11-08T02:01:22.951Z,975.73
2017-11-08T02:02:22.872Z,975.78
2017-11-08T02:03:22.790Z,975.80
2017-11-08T02:04:22.715Z,975.79
2017-11-08T02:05:22.637Z,975.80
2017-11-08T02:06:23.253Z,975.79
2017-11-08T02:07:22.463Z,975.82
2017-11-08T02:08:22.384Z,975.76
2017-11-08T02:09:22.303Z,975.79
2017-11-08T02:10:22.222Z,975.82
2017-11-08T02:11:22.140Z,975.85
2017-11-08T02:12:22.060Z,975.86
2017-11-08T02:13:21.978Z,975.95
2017-11-08T02:14:21.900Z,976.01
2017-11-08T02:15:21.818Z,976.04
2017-11-08T02:16:21.736Z,976.10
2017-11-08T02:17:21.654Z,976.09
2017-11-08T02:18:21.573Z,976.15
2017-11-08T02:19:21.493Z,976.14
2017-11-08T02:20:21.409Z,976.15
2017-11-08T02:21:21.332Z,976.15
2017-11-08T02:22:21.253Z,976.12
2017-11-08T02:23:21.177Z,976.08
2017-11-08T02:24:21.086Z,976.03
2017-11-08T02:25:21.007Z,976.02
2017-11-08T02:26:20.925Z,976.03
2017-11-08T02:27:20.846Z,976.05
2017-11-08T02:28:20.764Z,976.04
2017-11-08T02:29:20.685Z,976.06
2017-11-08T02:30:20.603Z,976.04
2017-11-08T02:31:20.518Z,976.06
2017-11-08T02:32:20.439Z,976.02
2017-11-08T02:33:20.358Z,976.04
2017-11-08T02:34:20.277Z,976.01
2017-11-08T02:35:20.194Z,976.02
2017-11-08T02:36:20.116Z,976.00
2017-11-08T02:37:20.040Z,976.01
2017-11-08T02:38:19.954Z,976.02
2017-11-08T02:39:19.871Z,976.06
2017-11-08T02:40:19.791Z,976.09
2017-11-08T02:41:19.716Z,976.14
2017-11-08T02:42:20.602Z,976.13
2017-11-08T02:43:19.549Z,976.14
2017-11-08T02:44:19.469Z,976.12
2017-11-08T02:45:19.390Z,976.09
2017-11-08T02:46:19.306Z,976.10
2017-11-08T02:47:19.225Z,976.11
2017-11-08T02:48:19.144Z,976.12
2017-11-08T02:49:19.064Z,976.16
2017-11-08T02:50:18.983Z,976.19
2017-11-08T02:51:18.902Z,976.23
2017-11-08T02:52:18.820Z,976.23
2017-11-08T02:53:18.738Z,976.22
2017-11-08T02:54:18.661Z,976.21
2017-11-08T02:55:18.578Z,976.22
2017-11-08T02:56:18.497Z,976.24
2017-11-08T02:57:18.417Z,976.23
2017-11-08T02:58:18.336Z,976.19
2017-11-08T02:59:18.253Z,976.17
2017-11-08T03:00:18.173Z,976.18
2017-11-08T03:01:18.102Z,976.19
2017-11-08T03:02:18.016Z,976.22
2017-11-08T03:03:17.931Z,976.22
2017-11-08T03:04:17.854Z,976.22
2017-11-08T03:05:17.768Z,976.26
2017-11-08T03:06:17.687Z,976.26
2017-11-08T03:07:17.606Z,976.27
2017-11-08T03:08:17.527Z,976.23
2017-11-08T03:09:17.454Z,976.24
2017-11-08T03:10:17.710Z,976.24
2017-11-08T03:11:17.284Z,976.25
2017-11-08T03:12:18.775Z,976.22
2017-11-08T03:13:17.123Z,976.22
2017-11-08T03:14:17.042Z,976.26
2017-11-08T03:15:16.961Z,976.27
2017-11-08T03:16:16.894Z,976.32
2017-11-08T03:17:16.798Z,976.34
2017-11-08T03:18:16.722Z,976.34
2017-11-08T03:19:16.638Z,976.34
2017-11-08T03:20:16.558Z,976.31
2017-11-08T03:21:16.474Z,976.31
2017-11-08T03:22:16.394Z,976.24
2017-11-08T03:23:16.313Z,976.21
2017-11-08T03:24:16.231Z,976.17
2017-11-08T03:25:16.154Z,976.16
2017-11-08T03:26:16.071Z,976.16
2017-11-08T03:27:15.988Z,976.17
2017-11-08T03:28:15.909Z,976.14
2017-11-08T03:29:15.832Z,976.15
2017-11-08T03:30:15.752Z,976.15
2017-11-08T03:31:15.831Z,976.19
2017-11-08T03:32:15.748Z,976.22
2017-11-08T03:33:15.507Z,976.24
2017-11-08T03:34:15.425Z,976.27
2017-11-08T03:35:15.655Z,976.28
2017-11-08T03:36:15.341Z,976.25
2017-11-08T03:37:15.225Z,976.23
2017-11-08T03:38:15.110Z,976.22
2017-11-08T03:39:15.024Z,976.26
2017-11-08T03:40:14.941Z,976.25
2017-11-08T03:41:15.572Z,976.32
2017-11-08T03:42:14.805Z,976.37
2017-11-08T03:43:15.009Z,976.38
2017-11-08T03:44:14.618Z,976.40
2017-11-08T03:45:14.544Z,976.40
2017-11-08T03:46:14.850Z,976.35
2017-11-08T03:47:14.701Z,976.34
2017-11-08T03:48:14.774Z,976.36
2017-11-08T03:49:14.759Z,976.34
2017-11-08T03:50:14.217Z,976.40
2017-11-08T03:51:14.056Z,976.41
2017-11-08T03:52:13.971Z,976.43
2017-11-08T03:53:13.890Z,976.42
2017-11-08T03:54:13.842Z,976.39
2017-11-08T03:55:16.670Z,976.42
2017-11-08T03:56:13.815Z,976.39
2017-11-08T03:57:13.807Z,976.40
2017-11-08T03:58:13.545Z,976.40
2017-11-08T03:59:13.704Z,976.41
2017-11-08T04:00:13.534Z,976.45
2017-11-08T04:01:13.245Z,976.42
2017-11-08T04:02:14.286Z,976.48
2017-11-08T04:03:13.143Z,976.52
2017-11-08T04:04:13.008Z,976.49
2017-11-08T04:05:13.073Z,976.54
2017-11-08T04:06:12.845Z,976.52
2017-11-08T04:07:13.193Z,976.52
2017-11-08T04:08:12.708Z,976.51
2017-11-08T04:09:12.708Z,976.52
2017-11-08T04:10:12.549Z,976.48
2017-11-08T04:11:14.132Z,976.47
2017-11-08T04:12:12.505Z,976.53
2017-11-08T04:13:12.273Z,976.54
2017-11-08T04:14:12.187Z,976.51
2017-11-08T04:15:12.431Z,976.58
2017-11-08T04:16:12.265Z,976.52
2017-11-08T04:17:12.138Z,976.47
2017-11-08T04:18:12.087Z,976.48
2017-11-08T04:19:11.812Z,976.44
2017-11-08T04:20:11.784Z,976.48
2017-11-08T04:21:12.127Z,976.50
2017-11-08T04:22:13.354Z,976.44
2017-11-08T04:23:13.951Z,976.41
2017-11-08T04:24:12.152Z,976.42
2017-11-08T04:25:11.365Z,976.42
2017-11-08T04:26:11.379Z,976.42
2017-11-08T04:27:11.660Z,976.46
2017-11-08T04:28:11.082Z,976.43
2017-11-08T04:29:10.977Z,976.47
2017-11-08T04:30:10.991Z,976.52
2017-11-08T04:31:10.898Z,976.48
2017-11-08T04:32:10.923Z,976.45
2017-11-08T04:33:10.664Z,976.45
2017-11-08T04:34:10.978Z,976.43
2017-11-08T04:35:10.545Z,976.41
2017-11-08T04:36:10.519Z,976.44
2017-11-08T04:37:10.422Z,976.43
2017-11-08T04:38:10.533Z,976.39
2017-11-08T04:39:10.205Z,976.44
2017-11-08T04:40:10.138Z,976.45
2017-11-08T04:41:09.999Z,976.48
2017-11-08T04:42:10.597Z,976.48
2017-11-08T04:43:10.039Z,976.46
2017-11-08T04:44:09.757Z,976.46
2017-11-08T04:45:10.385Z,976.46
2017-11-08T04:46:09.730Z,976.47
2017-11-08T04:47:09.899Z,976.49
2017-11-08T04:48:09.436Z,976.54
2017-11-08T04:49:09.588Z,976.51
2017-11-08T04:50:09.517Z,976.54
2017-11-08T04:51:09.302Z,976.56
2017-11-08T04:52:09.440Z,976.56
2017-11-08T04:53:09.668Z,976.55
2017-11-08T04:54:08.987Z,976.60
2017-11-08T04:55:08.876Z,976.61
2017-11-08T04:56:09.352Z,976.64
2017-11-08T04:57:09.209Z,976.70
2017-11-08T04:58:09.951Z,976.69
2017-11-08T04:59:09.567Z,976.71
2017-11-08T05:00:10.108Z,976.65
2017-11-08T05:01:08.381Z,976.68
2017-11-08T05:02:10.769Z,976.63
2017-11-08T05:03:08.526Z,976.63
2017-11-08T05:04:08.387Z,976.61
2017-11-08T05:05:08.852Z,976.61
2017-11-08T05:06:07.980Z,976.60
2017-11-08T05:07:07.923Z,976.61
2017-11-08T05:08:08.250Z,976.57
2017-11-08T05:09:08.210Z,976.59
2017-11-08T05:10:08.000Z,976.64
2017-11-08T05:11:07.958Z,976.62
2017-11-08T05:12:08.436Z,976.63
2017-11-08T05:13:08.418Z,976.62
2017-11-08T05:14:08.422Z,976.63
2017-11-08T05:15:08.018Z,976.62
2017-11-08T05:16:08.030Z,976.69
2017-11-08T05:17:07.088Z,976.72
2017-11-08T05:18:07.117Z,976.74
2017-11-08T05:19:06.972Z,976.77
2017-11-08T05:20:07.370Z,976.76
2017-11-08T05:21:06.935Z,976.75
2017-11-08T05:22:06.854Z,976.72
2017-11-08T05:23:07.058Z,976.74
2017-11-08T05:24:06.879Z,976.77
2017-11-08T05:25:08.617Z,976.79
2017-11-08T05:26:06.661Z,976.76
2017-11-08T05:27:10.894Z,976.79
2017-11-08T05:28:06.588Z,976.76
2017-11-08T05:29:06.649Z,976.80
2017-11-08T05:30:06.042Z,976.81
2017-11-08T05:31:07.009Z,976.82
2017-11-08T05:32:07.284Z,976.85
2017-11-08T05:33:05.854Z,976.84
2017-11-08T05:34:06.514Z,976.87
2017-11-08T05:35:07.028Z,976.84
2017-11-08T05:36:06.934Z,976.89
2017-11-08T05:37:07.614Z,976.92
2017-11-08T05:38:07.445Z,976.91
2017-11-08T05:39:06.543Z,976.93
2017-11-08T05:40:08.466Z,976.94
2017-11-08T05:41:05.839Z,976.95
2017-11-08T05:42:06.081Z,976.99
2017-11-08T05:43:05.546Z,977.00
2017-11-08T05:44:06.196Z,977.04
2017-11-08T05:45:05.733Z,977.03
2017-11-08T05:46:04.861Z,977.06
2017-11-08T05:47:05.407Z,977.03
2017-11-08T05:48:06.159Z,977.02
2017-11-08T05:49:04.575Z,976.97
2017-11-08T05:50:04.934Z,977.00
2017-11-08T05:51:04.651Z,977.03
2017-11-08T05:52:04.306Z,977.02
2017-11-08T05:53:04.529Z,977.06
2017-11-08T05:54:04.656Z,977.01
2017-11-08T05:55:04.011Z,977.05
2017-11-08T05:56:04.050Z,977.05
2017-11-08T05:57:07.059Z,977.06
2017-11-08T05:58:03.830Z,977.10
2017-11-08T05:59:03.676Z,977.10
2017-11-08T06:00:04.023Z,977.09
2017-11-08T06:01:04.153Z,977.09
2017-11-08T06:02:03.983Z,977.06
2017-11-08T06:03:03.531Z,977.03
2017-11-08T06:04:03.374Z,976.99
2017-11-08T06:05:03.239Z,976.96
2017-11-08T06:06:03.213Z,977.00
2017-11-08T06:07:03.865Z,976.99
2017-11-08T06:08:05.700Z,977.01
2017-11-08T06:09:02.965Z,977.06
2017-11-08T06:10:04.856Z,977.05
2017-11-08T06:11:02.971Z,977.08
2017-11-08T06:12:07.214Z,977.11
2017-11-08T06:13:03.783Z,977.06
2017-11-08T06:14:07.265Z,977.05
2017-11-08T06:15:02.370Z,977.05
2017-11-08T06:16:02.714Z,977.04
2017-11-08T06:17:03.495Z,977.08
2017-11-08T06:18:02.201Z,977.07
2017-11-08T06:19:03.539Z,977.09
2017-11-08T06:20:04.026Z,977.10
2017-11-08T06:21:04.415Z,977.12
2017-11-08T06:22:02.730Z,977.14
2017-11-08T06:23:01.722Z,977.14
2017-11-08T06:24:01.913Z,977.14
2017-11-08T06:25:01.590Z,977.15
2017-11-08T06:26:01.537Z,977.15
2017-11-08T06:27:01.493Z,977.13
2017-11-08T06:28:01.499Z,977.15
2017-11-08T06:29:01.279Z,977.14
2017-11-08T06:30:01.266Z,977.12
2017-11-08T06:31:01.075Z,977.10
2017-11-08T06:32:01.021Z,977.11
2017-11-08T06:33:00.897Z,977.18
2017-11-08T06:34:04.329Z,977.20
2017-11-08T06:35:01.071Z,977.22
2017-11-08T06:36:01.415Z,977.24
2017-11-08T06:37:00.588Z,977.28
2017-11-08T06:38:00.667Z,977.30
2017-11-08T06:39:00.415Z,977.31
2017-11-08T06:40:01.171Z,977.32
2017-11-08T06:41:00.269Z,977.37
2017-11-08T06:42:00.176Z,977.37
2017-11-08T06:43:00.193Z,977.41
2017-11-08T06:44:00.008Z,977.43
2017-11-08T06:45:00.163Z,977.43
2017-11-08T06:45:59.870Z,977.44
2017-11-08T06:47:01.703Z,977.41
2017-11-08T06:48:00.922Z,977.45
2017-11-08T06:48:59.600Z,977.49
2017-11-08T06:50:02.243Z,977.50
2017-11-08T06:51:02.205Z,977.49
2017-11-08T06:51:59.364Z,977.55
2017-11-08T06:52:59.409Z,977.57
2017-11-08T06:53:59.376Z,977.53
2017-11-08T06:54:59.110Z,977.57
2017-11-08T06:55:59.131Z,977.54
2017-11-08T06:56:58.955Z,977.56
2017-11-08T06:57:58.866Z,977.57
2017-11-08T06:58:58.991Z,977.61
2017-11-08T06:59:58.773Z,977.59
2017-11-08T07:00:58.623Z,977.58
2017-11-08T07:01:58.750Z,977.55
2017-11-08T07:02:58.479Z,977.57
2017-11-08T07:04:01.258Z,977.61
2017-11-08T07:04:58.689Z,977.55
2017-11-08T07:05:58.450Z,977.54
2017-11-08T07:06:58.146Z,977.54
2017-11-08T07:07:58.069Z,977.54
2017-11-08T07:08:57.976Z,977.50
2017-11-08T07:09:57.896Z,977.51
2017-11-08T07:10:57.811Z,977.52
2017-11-08T07:11:57.836Z,977.51
2017-11-08T07:12:57.662Z,977.52
2017-11-08T07:13:59.341Z,977.49
2017-11-08T07:14:57.508Z,977.53
2017-11-08T07:15:57.473Z,977.52
2017-11-08T07:16:57.327Z,977.51
2017-11-08T07:17:57.243Z,977.50
2017-11-08T07:18:57.162Z,977.50
2017-11-08T07:19:57.082Z,977.52
2017-11-08T07:20:57.001Z,977.52
2017-11-08T07:21:56.920Z,977.51
2017-11-08T07:22:57.050Z,977.52
2017-11-08T07:23:57.751Z,977.52
2017-11-08T07:24:56.678Z,977.54
2017-11-08T07:25:56.595Z,977.54
2017-11-08T07:26:56.514Z,977.51
2017-11-08T07:27:56.433Z,977.48
2017-11-08T07:28:56.869Z,977.50
2017-11-08T07:29:56.271Z,977.53
2017-11-08T07:30:56.196Z,977.50
2017-11-08T07:31:56.110Z,977.52
2017-11-08T07:32:56.028Z,977.52
2017-11-08T07:33:55.948Z,977.54
2017-11-08T07:34:55.866Z,977.55
2017-11-08T07:35:55.790Z,977.53
2017-11-08T07:36:55.704Z,977.59
2017-11-08T07:37:55.625Z,977.60
2017-11-08T07:38:55.543Z,977.57
2017-11-08T07:39:55.472Z,977.58
2017-11-08T07:40:55.384Z,977.62
2017-11-08T07:41:55.300Z,977.62
2017-11-08T07:42:55.220Z,977.63
2017-11-08T07:43:55.139Z,977.62
2017-11-08T07:44:55.058Z,977.62
2017-11-08T07:45:54.982Z,977.63
2017-11-08T07:46:54.897Z,977.67
2017-11-08T07:47:54.817Z,977.69
2017-11-08T07:48:54.737Z,977.71
2017-11-08T07:49:54.658Z,977.72
2017-11-08T07:50:54.574Z,977.74
2017-11-08T07:51:54.494Z,977.72
2017-11-08T07:52:54.415Z,977.75
2017-11-08T07:53:54.333Z,977.74
2017-11-08T07:54:54.252Z,977.76
2017-11-08T07:55:54.173Z,977.75
2017-11-08T07:56:54.094Z,977.77
2017-11-08T07:57:54.011Z,977.81
2017-11-08T07:58:53.932Z,977.80
2017-11-08T07:59:53.852Z,977.86
2017-11-08T08:00:53.770Z,977.87
2017-11-08T08:01:53.693Z,977.89
2017-11-08T08:02:53.610Z,977.91
2017-11-08T08:03:53.537Z,977.97
2017-11-08T08:04:53.448Z,978.01
2017-11-08T08:05:53.378Z,978.03
2017-11-08T08:06:53.288Z,978.05
2017-11-08T08:07:53.208Z,978.06
2017-11-08T08:08:53.127Z,978.06
2017-11-08T08:09:53.051Z,978.06
2017-11-08T08:10:52.965Z,978.08
2017-11-08T08:11:52.887Z,978.05
2017-11-08T08:12:52.808Z,978.07
2017-11-08T08:13:52.737Z,978.09
2017-11-08T08:14:52.645Z,978.14
2017-11-08T08:15:52.565Z,978.10
2017-11-08T08:16:52.484Z,978.07
2017-11-08T08:17:52.410Z,978.07
2017-11-08T08:18:52.322Z,978.07
2017-11-08T08:19:52.243Z,978.04
2017-11-08T08:20:52.163Z,978.06
2017-11-08T08:21:52.084Z,978.06
2017-11-08T08:22:52.000Z,978.05
2017-11-08T08:23:51.921Z,978.02
2017-11-08T08:24:51.842Z,978.06
2017-11-08T08:25:51.761Z,978.02
2017-11-08T08:26:51.686Z,978.08
2017-11-08T08:27:51.599Z,978.06
2017-11-08T08:28:51.522Z,978.07
2017-11-08T08:29:51.445Z,978.08
2017-11-08T08:30:51.358Z,978.08
2017-11-08T08:31:51.283Z,978.08
2017-11-08T08:32:51.197Z,978.05
2017-11-08T08:33:51.124Z,978.09
2017-11-08T08:34:51.037Z,978.10
2017-11-08T08:35:50.957Z,978.13
2017-11-08T08:36:50.877Z,978.15
2017-11-08T08:37:50.795Z,978.16
2017-11-08T08:38:50.716Z,978.16
2017-11-08T08:39:50.642Z,978.17
2017-11-08T08:40:50.556Z,978.14
2017-11-08T08:41:50.474Z,978.16
2017-11-08T08:42:50.393Z,978.15
2017-11-08T08:43:50.313Z,978.12
2017-11-08T08:44:50.235Z,978.12
2017-11-08T08:45:50.154Z,978.08
2017-11-08T08:46:50.077Z,978.03
2017-11-08T08:47:49.995Z,978.00
2017-11-08T08:48:49.918Z,977.99
2017-11-08T08:49:49.834Z,978.01
2017-11-08T08:50:49.831Z,978.08
2017-11-08T08:51:49.673Z,978.11
2017-11-08T08:52:49.592Z,978.15
2017-11-08T08:53:49.512Z,978.21
2017-11-08T08:54:49.432Z,978.23
2017-11-08T08:55:49.352Z,978.23
2017-11-08T08:56:49.272Z,978.27
2017-11-08T08:57:49.194Z,978.26
2017-11-08T08:58:49.111Z,978.22
2017-11-08T08:59:49.033Z,978.26
2017-11-08T09:00:48.952Z,978.24
2017-11-08T09:01:48.871Z,978.26
2017-11-08T09:02:48.792Z,978.29
2017-11-08T09:03:48.712Z,978.27
2017-11-08T09:04:48.634Z,978.24
2017-11-08T09:05:48.550Z,978.19
2017-11-08T09:06:48.470Z,978.18
2017-11-08T09:07:48.390Z,978.16
2017-11-08T09:08:48.316Z,978.15
2017-11-08T09:09:48.231Z,978.18
2017-11-08T09:10:48.152Z,978.17
2017-11-08T09:11:48.072Z,978.18
2017-11-08T09:12:47.995Z,978.13
2017-11-08T09:13:47.911Z,978.07
2017-11-08T09:14:47.831Z,978.10
2017-11-08T09:15:47.751Z,978.08
2017-11-08T09:16:47.676Z,978.08
2017-11-08T09:17:47.594Z,978.11
2017-11-08T09:18:47.513Z,978.11
2017-11-08T09:19:47.432Z,978.14
2017-11-08T09:20:47.353Z,978.13
2017-11-08T09:21:47.274Z,978.14
2017-11-08T09:22:47.198Z,978.16
2017-11-08T09:23:47.115Z,978.13
2017-11-08T09:24:47.039Z,978.17
2017-11-08T09:25:47.312Z,978.15
2017-11-08T09:26:46.875Z,978.22
2017-11-08T09:27:46.798Z,978.19
2017-11-08T09:28:46.716Z,978.19
2017-11-08T09:29:46.639Z,978.22
2017-11-08T09:30:46.555Z,978.22
2017-11-08T09:31:46.476Z,978.20
2017-11-08T09:32:46.397Z,978.19
2017-11-08T09:33:46.318Z,978.20
2017-11-08T09:34:46.241Z,978.18
2017-11-08T09:35:46.157Z,978.16
2017-11-08T09:36:46.084Z,978.19
2017-11-08T09:37:46.001Z,978.21
2017-11-08T09:38:45.921Z,978.20
2017-11-08T09:39:45.838Z,978.25
2017-11-08T09:40:45.762Z,978.24
2017-11-08T09:41:45.681Z,978.18
2017-11-08T09:42:45.601Z,978.21
2017-11-08T09:43:45.522Z,978.22
2017-11-08T09:44:45.441Z,978.19
2017-11-08T09:45:45.644Z,978.18
2017-11-08T09:46:45.399Z,978.14
2017-11-08T09:47:45.281Z,978.09
2017-11-08T09:48:45.153Z,978.08
2017-11-08T09:49:45.048Z,978.06
2017-11-08T09:50:45.111Z,978.08
2017-11-08T09:51:45.093Z,978.06
2017-11-08T09:52:44.810Z,978.08
2017-11-08T09:53:44.729Z,978.03
2017-11-08T09:54:44.762Z,978.06
2017-11-08T09:55:44.591Z,978.03
2017-11-08T09:56:45.152Z,978.06
2017-11-08T09:57:44.704Z,978.04
2017-11-08T09:58:45.074Z,978.06
2017-11-08T09:59:44.364Z,978.02
2017-11-08T10:00:44.176Z,978.01
2017-11-08T10:01:44.597Z,978.02
2017-11-08T10:02:44.149Z,978.01
2017-11-08T10:03:43.948Z,978.03
2017-11-08T10:04:43.926Z,977.96
2017-11-08T10:05:44.056Z,978.02
2017-11-08T10:06:44.216Z,978.03
2017-11-08T10:07:43.723Z,978.03
2017-11-08T10:08:43.583Z,978.04
2017-11-08T10:09:43.468Z,978.06
2017-11-08T10:10:43.427Z,978.06
2017-11-08T10:11:43.683Z,978.07
2017-11-08T10:12:43.303Z,978.05
2017-11-08T10:13:43.254Z,978.03
2017-11-08T10:14:43.119Z,978.05
2017-11-08T10:15:43.163Z,978.06
2017-11-08T10:16:43.059Z,978.05
2017-11-08T10:17:43.279Z,978.06
2017-11-08T10:18:42.805Z,978.07
2017-11-08T10:19:42.740Z,978.10
2017-11-08T10:20:42.619Z,978.12
2017-11-08T10:21:42.536Z,978.13
2017-11-08T10:22:43.049Z,978.12
2017-11-08T10:23:42.408Z,978.10
2017-11-08T10:24:42.305Z,978.09
2017-11-08T10:25:42.507Z,978.13
2017-11-08T10:26:42.149Z,978.17
2017-11-08T10:27:42.208Z,978.17
2017-11-08T10:28:42.596Z,978.19
2017-11-08T10:29:42.224Z,978.17
2017-11-08T10:30:41.858Z,978.23
2017-11-08T10:31:41.735Z,978.18
2017-11-08T10:32:42.504Z,978.19
2017-11-08T10:33:41.585Z,978.22
2017-11-08T10:34:42.020Z,978.25
2017-11-08T10:35:41.443Z,978.21
2017-11-08T10:36:41.360Z,978.21
2017-11-08T10:37:41.310Z,978.19
2017-11-08T10:38:41.184Z,978.20
2017-11-08T10:39:41.142Z,978.20
2017-11-08T10:40:41.434Z,978.20
2017-11-08T10:41:40.968Z,978.22
2017-11-08T10:42:40.842Z,978.25
2017-11-08T10:43:40.775Z,978.20
2017-11-08T10:44:40.767Z,978.19
2017-11-08T10:45:42.235Z,978.17
2017-11-08T10:46:43.257Z,978.14
2017-11-08T10:47:40.467Z,978.15
2017-11-08T10:48:40.452Z,978.10
2017-11-08T10:49:40.293Z,978.11
2017-11-08T10:50:40.269Z,978.07
2017-11-08T10:51:40.198Z,978.05
2017-11-08T10:52:40.218Z,978.06
2017-11-08T10:53:40.101Z,978.00
2017-11-08T10:54:40.041Z,978.02
2017-11-08T10:55:40.021Z,977.99
2017-11-08T10:56:40.431Z,978.00
2017-11-08T10:57:39.911Z,978.04
2017-11-08T10:58:39.843Z,978.09
2017-11-08T10:59:40.016Z,978.07
2017-11-08T11:00:39.697Z,978.15
2017-11-08T11:01:39.845Z,978.15
2017-11-08T11:02:39.332Z,978.20
2017-11-08T11:03:39.567Z,978.22
2017-11-08T11:04:39.436Z,978.27
2017-11-08T11:05:42.489Z,978.27
2017-11-08T11:06:39.029Z,978.35
2017-11-08T11:07:39.707Z,978.35
2017-11-08T11:08:38.803Z,978.33
2017-11-08T11:09:38.780Z,978.30
2017-11-08T11:10:39.684Z,978.31
2017-11-08T11:11:39.247Z,978.29
2017-11-08T11:12:38.776Z,978.28
2017-11-08T11:13:38.789Z,978.31
2017-11-08T11:14:38.896Z,978.27
2017-11-08T11:15:38.915Z,978.29
2017-11-08T11:16:39.092Z,978.29
2017-11-08T11:17:40.307Z,978.29
2017-11-08T11:18:42.193Z,978.26
2017-11-08T11:19:39.486Z,978.27
2017-11-08T11:20:38.805Z,978.27
2017-11-08T11:21:38.437Z,978.25
2017-11-08T11:22:38.944Z,978.29
2017-11-08T11:23:38.455Z,978.28
2017-11-08T11:24:37.661Z,978.25
2017-11-08T11:25:40.093Z,978.20
2017-11-08T11:26:37.416Z,978.21
2017-11-08T11:27:39.185Z,978.23
2017-11-08T11:28:37.263Z,978.24
2017-11-08T11:29:37.267Z,978.23
2017-11-08T11:30:38.114Z,978.28
2017-11-08T11:31:37.781Z,978.22
2017-11-08T11:32:37.959Z,978.25
2017-11-08T11:33:38.287Z,978.28
2017-11-08T11:34:38.085Z,978.31
2017-11-08T11:35:37.148Z,978.33
2017-11-08T11:36:39.256Z,978.39
2017-11-08T11:37:37.915Z,978.43
2017-11-08T11:38:38.467Z,978.44
2017-11-08T11:39:37.387Z,978.45
2017-11-08T11:40:36.923Z,978.47
2017-11-08T11:41:36.962Z,978.46
2017-11-08T11:42:36.160Z,978.45
2017-11-08T11:43:36.590Z,978.44
2017-11-08T11:44:36.030Z,978.42
2017-11-08T11:45:35.934Z,978.38
2017-11-08T11:46:36.011Z,978.35
2017-11-08T11:47:35.953Z,978.34
2017-11-08T11:48:37.253Z,978.32
2017-11-08T11:49:36.578Z,978.32
2017-11-08T11:50:36.976Z,978.32
2017-11-08T11:51:35.893Z,978.31
2017-11-08T11:52:36.008Z,978.30
2017-11-08T11:53:38.914Z,978.34
2017-11-08T11:54:35.401Z,978.34
2017-11-08T11:55:35.594Z,978.35
2017-11-08T11:56:37.872Z,978.40
2017-11-08T11:57:35.120Z,978.38
2017-11-08T11:58:35.433Z,978.41
2017-11-08T11:59:34.847Z,978.41
2017-11-08T12:00:34.999Z,978.34
2017-11-08T12:01:35.221Z,978.38
2017-11-08T12:02:34.623Z,978.37
2017-11-08T12:03:34.508Z,978.39
2017-11-08T12:04:36.098Z,978.32
2017-11-08T12:05:35.185Z,978.32
2017-11-08T12:06:34.476Z,978.31
2017-11-08T12:07:34.215Z,978.30
2017-11-08T12:08:34.209Z,978.21
2017-11-08T12:09:34.194Z,978.22
2017-11-08T12:10:33.999Z,978.22
2017-11-08T12:11:34.199Z,978.21
2017-11-08T12:12:34.322Z,978.17
2017-11-08T12:13:33.777Z,978.17
2017-11-08T12:14:34.404Z,978.16
2017-11-08T12:15:36.393Z,978.17
2017-11-08T12:16:34.307Z,978.17
2017-11-08T12:17:33.643Z,978.16
2017-11-08T12:18:34.903Z,978.18
2017-11-08T12:19:33.259Z,978.23
2017-11-08T12:20:33.178Z,978.21
2017-11-08T12:21:33.193Z,978.26
2017-11-08T12:22:40.808Z,978.23
2017-11-08T12:23:33.758Z,978.25
2017-11-08T12:24:33.684Z,978.24
2017-11-08T12:25:35.844Z,978.22
2017-11-08T12:26:36.938Z,978.15
2017-11-08T12:27:33.902Z,978.18